Time;durP1;ratioP1;P1;durP2;ratioP2;P2;SDS_P1;SDS_P2;PMS_P1;PMS_P2;Temp;Humidity;BMP_temperature;BMP_pressure;BME280_temperature;BME280_humidity;BME280_pressure;Samples;Min_cycle;Max_cycle;Signal;HPM_P1;HPM_P2
2021/12/17 00:00:26;;;;;;;;;;;;;;;;;;5031070;28;19948;-76
2021/12/17 00:03:11;;;;;;;;;;;;;;;;;;5029993;28;20652;-75
2021/12/17 00:05:54;;;;;;;;;;;;;;;;;;5029796;28;20393;-76
2021/12/17 00:08:20;;;;;;;;;;;;;;;;;;5029059;28;19940;-76
2021/12/17 00:10:46;;;;;;;;;;;;;;;;;;5032250;28;20365;-76
2021/12/17 00:13:12;;;;;;;;;;;;;;;;;;5031201;28;19992;-81
2021/12/17 00:15:39;;;;;;;;;;;;;;;;;;5024213;28;19960;-77
2021/12/17 00:18:14;;;;;;;;;;;;;;;;;;5030622;28;19988;-76
2021/12/17 00:53:28;;;;;;;;;;;;;;;;;;5030631;28;19921;-76
2021/12/17 00:55:54;;;;;;;;;;;;;;;;;;5030932;28;19999;-76
2021/12/17 00:58:20;;;;;;;;;;;;;;;;;;5043402;28;20008;-77
2021/12/17 01:00:46;;;;;;;;;;;;;;;;;;5029611;28;20409;-76
2021/12/17 01:03:12;;;;;;;;;;;;;;;;;;5030381;28;19913;-76
2021/12/17 01:05:38;;;;;;;;;;;;;;;;;;5048701;28;19999;-76
2021/12/17 01:08:03;;;;;;;;;;;;;;;;;;5045533;28;19949;-76
2021/12/17 01:10:29;;;;;;;;;;;;;;;;;;5029635;28;20385;-76
2021/12/17 01:12:55;;;;;;;;;;;;;;;;;;5025888;28;19940;-76
2021/12/17 01:15:21;;;;;;;;;;;;;;;;;;5037701;28;19949;-75
2021/12/17 01:17:49;;;;;;;;;;;;;;;;;;5023815;28;20587;-76
2021/12/17 01:36:21;;;;;;;;;;;;;;;;;;5029791;28;19915;-76
2021/12/17 01:41:45;;;;;;;;;;;;;;;;;;5030069;28;19921;-76
2021/12/17 01:44:05;;;;;;;;;;;;;;;;;;5025934;28;19916;-76
2021/12/17 01:46:31;;;;;;;;;;;;;;;;;;5021613;28;19972;-77
2021/12/17 01:59:51;;;;;;;;;;;;;;;;;;5029536;28;20330;-76
2021/12/17 02:02:17;;;;;;;;;;;;;;;;;;5032095;28;20130;-76
2021/12/17 02:04:44;;;;;;;;;;;;;;;;;;5047006;28;19917;-77
2021/12/17 02:07:09;;;;;;;;;;;;;;;;;;5030309;28;19917;-76
2021/12/17 02:13:09;;;;;;;;;;;;;;;;;;5024392;28;20284;-76
2021/12/17 02:20:23;;;;;;;;;;;;;;;;;;5034546;28;20285;-76
2021/12/17 02:31:11;;;;;;;;;;;;;;;;;;5026702;28;19919;-76
2021/12/17 02:33:37;;;;;;;;;;;;;;;;;;5026127;28;20294;-76
2021/12/17 02:36:05;;;;;;;;;;;;;;;;;;5030469;28;19940;-77
2021/12/17 02:38:34;;;;;;;;;;;;;;;;;;5021317;28;19917;-76
2021/12/17 02:46:30;;;;;;;;;;;;;;;;;;5033759;28;20332;-75
2021/12/17 02:48:55;;;;;;;;;;;;;;;;;;5031780;28;19956;-77
2021/12/17 02:51:22;;;;;;;;;;;;;;;;;;5047029;28;20293;-76
2021/12/17 02:53:48;;;;;;;;;;;;;;;;;;5033985;28;19957;-76
2021/12/17 02:56:14;;;;;;;;;;;;;;;;;;5025590;28;19960;-77
2021/12/17 02:58:40;;;;;;;;;;;;;;;;;;5052030;28;19953;-76
2021/12/17 03:01:06;;;;;;;;;;;;;;;;;;5034412;28;20012;-76
2021/12/17 03:03:33;;;;;;;;;;;;;;;;;;5035516;28;20360;-76
2021/12/17 03:05:59;;;;;;;;;;;;;;;;;;5033921;28;19997;-76
2021/12/17 03:08:25;;;;;;;;;;;;;;;;;;5047387;28;20007;-76
2021/12/17 03:10:51;;;;;;;;;;;;;;;;;;5041658;28;20381;-76
2021/12/17 03:13:17;;;;;;;;;;;;;;;;;;5029244;28;19928;-76
2021/12/17 03:16:06;;;;;;;;;;;;;;;;;;5030071;28;19917;-76
2021/12/17 03:24:22;;;;;;;;;;;;;;;;;;5015050;28;19921;-76
2021/12/17 03:26:48;;;;;;;;;;;;;;;;;;5025292;28;20012;-77
2021/12/17 03:29:14;;;;;;;;;;;;;;;;;;5025659;28;20344;-76
2021/12/17 03:31:40;;;;;;;;;;;;;;;;;;5033517;28;19913;-77
2021/12/17 03:34:18;;;;;;;;;;;;;;;;;;5032454;28;20387;-76
2021/12/17 03:36:44;;;;;;;;;;;;;;;;;;5030724;28;19948;-77
2021/12/17 03:39:10;;;;;;;;;;;;;;;;;;5046335;28;19924;-77
2021/12/17 03:41:38;;;;;;;;;;;;;;;;;;5031877;28;20441;-77
2021/12/17 03:44:04;;;;;;;;;;;;;;;;;;5028742;28;19920;-77
2021/12/17 03:46:30;;;;;;;;;;;;;;;;;;5036374;28;19917;-76
2021/12/17 03:48:56;;;;;;;;;;;;;;;;;;5024537;28;19914;-76
2021/12/17 03:51:22;;;;;;;;;;;;;;;;;;5021397;28;19913;-77
2021/12/17 03:53:48;;;;;;;;;;;;;;;;;;5042444;28;20014;-76
2021/12/17 03:56:14;;;;;;;;;;;;;;;;;;5029686;28;20392;-76
2021/12/17 03:58:40;;;;;;;;;;;;;;;;;;5030316;28;19921;-76
2021/12/17 04:01:06;;;;;;;;;;;;;;;;;;5032469;28;19913;-77
2021/12/17 04:03:32;;;;;;;;;;;;;;;;;;5038655;28;19964;-76
2021/12/17 04:05:58;;;;;;;;;;;;;;;;;;5032431;28;20313;-76
2021/12/17 04:08:24;;;;;;;;;;;;;;;;;;5042652;28;19948;-77
2021/12/17 04:10:53;;;;;;;;;;;;;;;;;;5041583;28;19948;-77
2021/12/17 04:15:55;;;;;;;;;;;;;;;;;;5028403;28;19913;-77
2021/12/17 04:18:21;;;;;;;;;;;;;;;;;;5030295;28;19937;-76
2021/12/17 04:20:47;;;;;;;;;;;;;;;;;;5031758;28;20348;-77
2021/12/17 04:23:13;;;;;;;;;;;;;;;;;;5026300;28;19921;-78
2021/12/17 04:25:39;;;;;;;;;;;;;;;;;;5031590;28;20046;-77
2021/12/17 04:28:05;;;;;;;;;;;;;;;;;;5027765;28;20011;-77
2021/12/17 04:30:32;;;;;;;;;;;;;;;;;;5032166;28;19959;-77
2021/12/17 04:32:58;;;;;;;;;;;;;;;;;;5029419;28;19935;-77
2021/12/17 04:35:24;;;;;;;;;;;;;;;;;;5024214;28;19952;-77
2021/12/17 04:37:50;;;;;;;;;;;;;;;;;;5043049;28;19964;-77
2021/12/17 04:40:18;;;;;;;;;;;;;;;;;;5033162;28;20289;-77
2021/12/17 04:45:29;;;;;;;;;;;;;;;;;;5028072;28;20494;-77
2021/12/17 04:58:54;;;;;;;;;;;;;;;;;;5025803;28;19966;-77
2021/12/17 05:01:20;;;;;;;;;;;;;;;;;;5028957;28;20334;-76
2021/12/17 05:03:46;;;;;;;;;;;;;;;;;;5027501;28;19953;-78
2021/12/17 05:06:14;;;;;;;;;;;;;;;;;;5031680;28;20018;-78
2021/12/17 05:08:40;;;;;;;;;;;;;;;;;;5031622;28;19924;-76
2021/12/17 05:11:37;;;;;;;;;;;;;;;;;;5029716;28;20369;-76
2021/12/17 05:22:05;;;;;;;;;;;;;;;;;;5030288;28;19914;-77
2021/12/17 05:24:31;;;;;;;;;;;;;;;;;;5023829;28;20020;-76
2021/12/17 05:26:57;;;;;;;;;;;;;;;;;;5041501;28;20008;-76
2021/12/17 05:29:23;;;;;;;;;;;;;;;;;;5043616;28;19952;-76
2021/12/17 05:31:49;;;;;;;;;;;;;;;;;;5023744;28;19964;-77
2021/12/17 05:34:15;;;;;;;;;;;;;;;;;;5029871;28;19921;-76
2021/12/17 05:36:41;;;;;;;;;;;;;;;;;;5027485;28;19951;-76
2021/12/17 05:39:07;;;;;;;;;;;;;;;;;;5041145;28;19952;-77
2021/12/17 05:41:33;;;;;;;;;;;;;;;;;;5027465;28;19932;-77
2021/12/17 05:43:59;;;;;;;;;;;;;;;;;;5031002;28;19945;-77
2021/12/17 05:49:09;;;;;;;;;;;;;;;;;;5024853;28;20004;-77
2021/12/17 05:51:35;;;;;;;;;;;;;;;;;;5026950;28;20063;-76
2021/12/17 05:54:01;;;;;;;;;;;;;;;;;;5036820;28;19913;-76
2021/12/17 05:56:27;;;;;;;;;;;;;;;;;;5029316;28;19920;-77
2021/12/17 05:58:53;;;;;;;;;;;;;;;;;;5028227;28;19952;-76
2021/12/17 06:01:19;;;;;;;;;;;;;;;;;;5023603;28;19913;-77
2021/12/17 06:03:45;;;;;;;;;;;;;;;;;;5033725;28;20395;-76
2021/12/17 06:06:11;;;;;;;;;;;;;;;;;;5053429;28;19999;-75
2021/12/17 06:08:37;;;;;;;;;;;;;;;;;;5027010;28;19980;-77
2021/12/17 06:11:03;;;;;;;;;;;;;;;;;;5025237;28;20344;-77
2021/12/17 06:13:29;;;;;;;;;;;;;;;;;;5029681;28;19917;-76
2021/12/17 06:15:55;;;;;;;;;;;;;;;;;;5024669;28;19921;-76
2021/12/17 06:18:21;;;;;;;;;;;;;;;;;;5025304;28;19959;-77
2021/12/17 06:20:47;;;;;;;;;;;;;;;;;;5041274;28;19963;-76
2021/12/17 06:23:13;;;;;;;;;;;;;;;;;;5030278;28;19953;-75
2021/12/17 06:25:39;;;;;;;;;;;;;;;;;;5024360;28;20391;-76
2021/12/17 06:28:05;;;;;;;;;;;;;;;;;;5019698;28;20353;-77
2021/12/17 06:30:31;;;;;;;;;;;;;;;;;;5094335;23;20297;-71
2021/12/17 06:32:57;;;;;;;;;;;;;;;;;;4984993;28;19914;-71
2021/12/17 06:35:23;;;;;;;;;;;;;;;;;;4973767;28;20289;-71
2021/12/17 06:37:49;;;;;;;;;;;;;;;;;;4968366;28;19925;-71
2021/12/17 06:40:15;;;;;;;;;;;;;;;;;;4969026;28;20471;-72
2021/12/17 06:42:41;;;;;;;;;;;;;;;;;;4970192;28;20452;-72
2021/12/17 06:45:15;;;;;;;;;;;;;;;;;;4975894;28;19980;-72
2021/12/17 06:47:41;;;;;;;;;;;;;;;;;;4975717;28;19918;-71
2021/12/17 07:00:33;;;;;;;;;;;;;;;;;;4974189;28;20291;-72
2021/12/17 07:06:00;;;;;;;;;;;;;;;;;;4968243;28;20042;-72
2021/12/17 07:11:13;;;;;;;;;;;;;;;;;;4960804;28;19923;-71
2021/12/17 07:19:56;;;;;;;;;;;;;;;;;;4966385;28;19922;-71
2021/12/17 07:40:31;;;;;;;;;;;;;;;;;;4965642;28;19929;-71
2021/12/17 07:43:01;;;;;;;;;;;;;;;;;;4975249;28;19938;-71
2021/12/17 07:45:27;;;;;;;;;;;;;;;;;;4989624;28;20001;-72
2021/12/17 07:47:53;;;;;;;;;;;;;;;;;;4974352;28;20626;-71
2021/12/17 07:50:19;;;;;;;;;;;;;;;;;;4974756;28;20414;-71
2021/12/17 07:52:45;;;;;;;;;;;;;;;;;;4975776;28;20004;-72
2021/12/17 07:55:11;;;;;;;;;;;;;;;;;;4967153;28;19914;-71
2021/12/17 08:29:23;;;;;;;;;;;;;;;;;;4957813;28;19973;-65
2021/12/17 08:31:42;;;;;;;;;;;;;;;;;;4953952;28;19914;-65
2021/12/17 08:34:07;;;;;;;;;;;;;;;;;;4965753;28;20040;-65
2021/12/17 08:36:33;;;;;;;;;;;;;;;;;;4965139;28;19960;-66
2021/12/17 08:38:59;;;;;;;;;;;;;;;;;;4951897;28;20017;-65
2021/12/17 08:41:27;;;;;;;;;;;;;;;;;;4954736;28;20288;-66
2021/12/17 08:43:53;;;;;;;;;;;;;;;;;;4947681;28;19944;-66
2021/12/17 08:46:19;;;;;;;;;;;;;;;;;;4952063;28;19918;-66
2021/12/17 08:48:45;;;;;;;;;;;;;;;;;;4954350;28;19954;-66
2021/12/17 08:51:10;;;;;;;;;;;;;;;;;;4958200;28;19922;-66
2021/12/17 08:53:36;;;;;;;;;;;;;;;;;;4968468;28;19941;-66
2021/12/17 08:56:02;;;;;;;;;;;;;;;;;;4945881;28;19956;-66
2021/12/17 08:58:28;;;;;;;;;;;;;;;;;;4967043;28;19961;-66
2021/12/17 09:00:55;;;;;;;;;;;;;;;;;;4949159;28;19960;-66
2021/12/17 09:03:20;;;;;;;;;;;;;;;;;;4953901;28;19950;-66
2021/12/17 09:05:46;;;;;;;;;;;;;;;;;;4955751;28;20395;-66
2021/12/17 09:08:13;;;;;;;;;;;;;;;;;;4953643;28;19919;-66
2021/12/17 09:10:39;;;;;;;;;;;;;;;;;;4944384;28;19915;-66
2021/12/17 09:13:05;;;;;;;;;;;;;;;;;;4953652;28;19915;-66
2021/12/17 09:15:31;;;;;;;;;;;;;;;;;;4948396;28;19949;-66
2021/12/17 09:17:57;;;;;;;;;;;;;;;;;;4949807;28;19946;-66
2021/12/17 09:20:23;;;;;;;;;;;;;;;;;;4950165;28;19954;-66
2021/12/17 09:22:49;;;;;;;;;;;;;;;;;;4948985;28;19919;-65
2021/12/17 09:25:15;;;;;;;;;;;;;;;;;;4945163;28;19922;-66
2021/12/17 09:27:41;;;;;;;;;;;;;;;;;;4948820;28;20009;-66
2021/12/17 09:30:07;;;;;;;;;;;;;;;;;;4949688;28;19922;-65
2021/12/17 09:32:33;;;;;;;;;;;;;;;;;;4951464;28;20366;-65
2021/12/17 09:34:59;;;;;;;;;;;;;;;;;;4944147;28;20209;-65
2021/12/17 09:37:25;;;;;;;;;;;;;;;;;;4950131;28;19925;-65
2021/12/17 09:39:51;;;;;;;;;;;;;;;;;;4948091;28;19961;-65
2021/12/17 09:42:17;;;;;;;;;;;;;;;;;;4950856;28;19966;-65
2021/12/17 09:44:43;;;;;;;;;;;;;;;;;;4949228;28;19965;-65
2021/12/17 09:47:09;;;;;;;;;;;;;;;;;;4948659;28;19964;-65
2021/12/17 09:49:35;;;;;;;;;;;;;;;;;;4948072;28;19957;-65
2021/12/17 09:52:00;;;;;;;;;;;;;;;;;;4948416;28;19949;-66
2021/12/17 09:54:26;;;;;;;;;;;;;;;;;;4948160;28;19974;-65
2021/12/17 09:56:52;;;;;;;;;;;;;;;;;;4945504;28;19953;-65
2021/12/17 09:59:18;;;;;;;;;;;;;;;;;;4948858;28;20378;-65
2021/12/17 10:01:44;;;;;;;;;;;;;;;;;;4947368;28;20449;-65
2021/12/17 10:04:10;;;;;;;;;;;;;;;;;;4947084;28;20057;-65
2021/12/17 10:06:36;;;;;;;;;;;;;;;;;;4958070;28;19921;-65
2021/12/17 10:09:02;;;;;;;;;;;;;;;;;;4961888;28;20086;-65
2021/12/17 10:11:28;;;;;;;;;;;;;;;;;;4949684;28;19990;-65
2021/12/17 10:13:54;;;;;;;;;;;;;;;;;;4954432;28;20160;-65
2021/12/17 10:16:20;;;;;;;;;;;;;;;;;;4949897;28;19985;-65
2021/12/17 10:18:47;;;;;;;;;;;;;;;;;;4951606;28;19914;-65
2021/12/17 10:21:12;;;;;;;;;;;;;;;;;;4951993;28;19958;-65
2021/12/17 10:23:38;;;;;;;;;;;;;;;;;;4951595;28;19954;-65
2021/12/17 10:26:04;;;;;;;;;;;;;;;;;;4962535;28;20017;-65
2021/12/17 10:28:30;;;;;;;;;;;;;;;;;;4948676;28;19995;-65
2021/12/17 10:30:56;;;;;;;;;;;;;;;;;;4949372;28;19914;-65
2021/12/17 10:33:24;;;;;;;;;;;;;;;;;;4946791;28;19954;-65
2021/12/17 10:35:51;;;;;;;;;;;;;;;;;;4941827;28;19964;-65
2021/12/17 10:38:17;;;;;;;;;;;;;;;;;;4946484;28;19915;-65
2021/12/17 10:40:50;;;;;;;;;;;;;;;;;;4949611;28;19925;-65
2021/12/17 10:43:31;;;;;;;;;;;;;;;;;;4958219;28;19929;-65
2021/12/17 10:46:00;;;;;;;;;;;;;;;;;;4942625;28;20379;-66
2021/12/17 10:48:48;;;;;;;;;;;;;;;;;;4955252;28;19918;-65
2021/12/17 10:51:17;;;;;;;;;;;;;;;;;;4944275;28;19915;-65
2021/12/17 10:53:43;;;;;;;;;;;;;;;;;;4948191;28;19922;-65
2021/12/17 10:56:09;;;;;;;;;;;;;;;;;;4947113;28;19953;-65
2021/12/17 10:58:35;;;;;;;;;;;;;;;;;;4967249;28;19914;-65
2021/12/17 11:01:02;;;;;;;;;;;;;;;;;;4956690;28;19954;-65
2021/12/17 11:03:28;;;;;;;;;;;;;;;;;;4950240;28;20040;-65
2021/12/17 11:05:54;;;;;;;;;;;;;;;;;;4947954;28;20056;-65
2021/12/17 11:08:20;;;;;;;;;;;;;;;;;;4964893;28;19965;-65
2021/12/17 11:10:46;;;;;;;;;;;;;;;;;;4943985;28;20166;-65
2021/12/17 11:13:12;;;;;;;;;;;;;;;;;;4958332;28;20192;-65
2021/12/17 11:15:38;;;;;;;;;;;;;;;;;;4952213;28;19957;-65
2021/12/17 11:18:04;;;;;;;;;;;;;;;;;;4955382;28;19922;-65
2021/12/17 11:20:30;;;;;;;;;;;;;;;;;;4969576;28;19918;-65
2021/12/17 11:22:56;;;;;;;;;;;;;;;;;;4949630;28;20358;-65
2021/12/17 11:25:22;;;;;;;;;;;;;;;;;;4957958;28;19925;-65
2021/12/17 11:27:48;;;;;;;;;;;;;;;;;;4954263;28;19961;-65
2021/12/17 11:30:14;;;;;;;;;;;;;;;;;;4959420;28;19950;-65
2021/12/17 11:32:40;;;;;;;;;;;;;;;;;;4949662;28;19978;-65
2021/12/17 11:35:06;;;;;;;;;;;;;;;;;;4952512;28;20404;-66
2021/12/17 11:37:32;;;;;;;;;;;;;;;;;;4962724;28;20433;-65
2021/12/17 11:39:58;;;;;;;;;;;;;;;;;;4958152;28;19922;-65
2021/12/17 11:42:25;;;;;;;;;;;;;;;;;;4963337;28;20389;-65
2021/12/17 11:44:54;;;;;;;;;;;;;;;;;;4955316;28;19918;-65
2021/12/17 11:47:20;;;;;;;;;;;;;;;;;;4963427;28;20104;-65
2021/12/17 11:49:48;;;;;;;;;;;;;;;;;;4954917;28;20054;-65
2021/12/17 11:52:14;;;;;;;;;;;;;;;;;;4960236;28;19965;-65
2021/12/17 11:54:39;;;;;;;;;;;;;;;;;;4956565;28;20379;-65
2021/12/17 11:57:05;;;;;;;;;;;;;;;;;;4978585;28;20322;-65
2021/12/17 11:59:32;;;;;;;;;;;;;;;;;;4961426;28;20354;-66
2021/12/17 12:02:00;;;;;;;;;;;;;;;;;;4962483;28;20311;-65
2021/12/17 12:04:26;;;;;;;;;;;;;;;;;;4961418;28;19921;-65
2021/12/17 12:06:52;;;;;;;;;;;;;;;;;;4959764;28;19985;-65
2021/12/17 12:09:24;;;;;;;;;;;;;;;;;;4954422;28;20411;-65
2021/12/17 12:11:50;;;;;;;;;;;;;;;;;;4962220;28;20061;-65
2021/12/17 12:14:16;;;;;;;;;;;;;;;;;;4954796;28;19915;-65
2021/12/17 12:16:42;;;;;;;;;;;;;;;;;;4951906;28;19937;-65
2021/12/17 12:19:08;;;;;;;;;;;;;;;;;;4954972;28;19970;-65
2021/12/17 12:21:34;;;;;;;;;;;;;;;;;;4953193;28;20283;-65
2021/12/17 12:23:59;;;;;;;;;;;;;;;;;;4968407;28;19914;-65
2021/12/17 12:26:25;;;;;;;;;;;;;;;;;;4942604;28;19973;-65
2021/12/17 12:28:54;;;;;;;;;;;;;;;;;;4953235;28;19956;-65
2021/12/17 12:31:22;;;;;;;;;;;;;;;;;;4954361;28;19919;-65
2021/12/17 12:33:48;;;;;;;;;;;;;;;;;;4951691;28;19914;-65
2021/12/17 12:36:13;;;;;;;;;;;;;;;;;;4960028;28;20000;-65
2021/12/17 12:38:39;;;;;;;;;;;;;;;;;;4957218;28;19984;-65
2021/12/17 12:41:07;;;;;;;;;;;;;;;;;;4960911;28;19950;-65
2021/12/17 12:43:33;;;;;;;;;;;;;;;;;;4962739;28;19918;-65
2021/12/17 12:45:59;;;;;;;;;;;;;;;;;;4949701;28;20384;-65
2021/12/17 12:48:25;;;;;;;;;;;;;;;;;;4953498;28;19985;-65
2021/12/17 12:50:51;;;;;;;;;;;;;;;;;;4952925;28;19961;-65
2021/12/17 12:53:17;;;;;;;;;;;;;;;;;;4949737;28;19941;-65
2021/12/17 12:55:43;;;;;;;;;;;;;;;;;;4949160;28;19961;-65
2021/12/17 12:58:09;;;;;;;;;;;;;;;;;;4951234;28;20140;-65
2021/12/17 13:00:35;;;;;;;;;;;;;;;;;;4948765;28;20412;-65
2021/12/17 13:03:01;;;;;;;;;;;;;;;;;;4953343;28;19957;-65
2021/12/17 13:05:27;;;;;;;;;;;;;;;;;;4950168;28;19950;-65
2021/12/17 13:07:53;;;;;;;;;;;;;;;;;;4950113;28;19954;-65
2021/12/17 13:10:19;;;;;;;;;;;;;;;;;;4962524;28;19915;-65
2021/12/17 13:12:45;;;;;;;;;;;;;;;;;;4955805;28;20414;-65
2021/12/17 13:15:19;;;;;;;;;;;;;;;;;;4964951;28;20442;-65
2021/12/17 13:20:16;;;;;;;;;;;;;;;;;;4949729;28;20328;-66
2021/12/17 13:20:56;;;;;;;;;;;;;;;;;;4946987;28;19918;-65
2021/12/17 13:23:22;;;;;;;;;;;;;;;;;;4947720;28;20002;-65
2021/12/17 13:25:48;;;;;;;;;;;;;;;;;;4961212;28;19923;-65
2021/12/17 13:28:14;;;;;;;;;;;;;;;;;;4967275;28;20071;-65
2021/12/17 13:30:40;;;;;;;;;;;;;;;;;;4952719;28;20068;-65
2021/12/17 13:33:06;;;;;;;;;;;;;;;;;;4953402;28;19942;-65
2021/12/17 13:35:33;;;;;;;;;;;;;;;;;;4964077;28;19954;-65
2021/12/17 13:37:59;;;;;;;;;;;;;;;;;;4965837;28;19922;-65
2021/12/17 13:40:26;;;;;;;;;;;;;;;;;;4956910;28;19915;-65
2021/12/17 13:42:53;;;;;;;;;;;;;;;;;;4956178;28;20521;-65
2021/12/17 13:45:20;;;;;;;;;;;;;;;;;;4951068;28;20116;-65
2021/12/17 13:47:48;;;;;;;;;;;;;;;;;;4950688;28;21915;-66
2021/12/17 13:50:14;;;;;;;;;;;;;;;;;;4947911;28;19915;-65
2021/12/17 13:52:40;;;;;;;;;;;;;;;;;;4948579;28;20276;-65
2021/12/17 13:55:06;;;;;;;;;;;;;;;;;;4947950;28;20309;-65
2021/12/17 13:57:32;;;;;;;;;;;;;;;;;;4967923;28;19969;-65
2021/12/17 13:59:58;;;;;;;;;;;;;;;;;;4960005;28;19957;-65
2021/12/17 14:02:24;;;;;;;;;;;;;;;;;;4952700;28;19946;-65
2021/12/17 14:04:50;;;;;;;;;;;;;;;;;;4950587;28;19954;-65
2021/12/17 14:07:16;;;;;;;;;;;;;;;;;;4967855;28;19961;-65
2021/12/17 14:09:42;;;;;;;;;;;;;;;;;;4951910;28;19921;-65
2021/12/17 14:12:08;;;;;;;;;;;;;;;;;;4966575;28;19962;-65
2021/12/17 14:14:35;;;;;;;;;;;;;;;;;;4959197;28;19965;-65
2021/12/17 14:17:01;;;;;;;;;;;;;;;;;;4949927;28;19915;-65
2021/12/17 14:19:27;;;;;;;;;;;;;;;;;;4957734;28;21214;-65
2021/12/17 14:21:53;;;;;;;;;;;;;;;;;;4964936;28;20000;-65
2021/12/17 14:24:19;;;;;;;;;;;;;;;;;;4953056;28;19963;-65
2021/12/17 14:26:45;;;;;;;;;;;;;;;;;;4964223;28;19953;-65
2021/12/17 14:29:11;;;;;;;;;;;;;;;;;;4971748;28;19970;-64
2021/12/17 14:31:37;;;;;;;;;;;;;;;;;;4964263;28;20282;-64
2021/12/17 14:34:02;;;;;;;;;;;;;;;;;;4951041;28;19921;-64
2021/12/17 14:36:28;;;;;;;;;;;;;;;;;;4956837;28;19950;-65
2021/12/17 14:39:02;;;;;;;;;;;;;;;;;;4962063;28;19954;-65
2021/12/17 14:41:43;;;;;;;;;;;;;;;;;;4965010;28;19919;-65
2021/12/17 14:44:21;;;;;;;;;;;;;;;;;;4957943;28;20271;-65
2021/12/17 14:46:56;;;;;;;;;;;;;;;;;;4977815;28;19915;-65
2021/12/17 15:04:43;;;;;;;;;;;;;;;;;;4950572;28;20407;-65
2021/12/17 15:07:09;;;;;;;;;;;;;;;;;;4950210;28;20021;-65
2021/12/17 15:09:36;;;;;;;;;;;;;;;;;;4976509;28;20486;-65
2021/12/17 15:12:11;;;;;;;;;;;;;;;;;;4948438;28;19938;-65
2021/12/17 15:14:37;;;;;;;;;;;;;;;;;;4953415;28;19929;-65
2021/12/17 15:17:04;;;;;;;;;;;;;;;;;;4950552;28;19965;-65
2021/12/17 15:19:30;;;;;;;;;;;;;;;;;;4975895;28;20025;-65
2021/12/17 15:21:56;;;;;;;;;;;;;;;;;;4951332;28;20009;-65
2021/12/17 15:24:22;;;;;;;;;;;;;;;;;;4975560;28;19949;-65
2021/12/17 15:26:48;;;;;;;;;;;;;;;;;;4970421;28;19953;-64
2021/12/17 15:29:14;;;;;;;;;;;;;;;;;;4951842;28;19960;-65
2021/12/17 15:31:40;;;;;;;;;;;;;;;;;;4947077;28;19964;-64
2021/12/17 15:34:06;;;;;;;;;;;;;;;;;;4947772;28;19945;-65
2021/12/17 15:36:32;;;;;;;;;;;;;;;;;;4945651;28;19950;-65
2021/12/17 15:38:58;;;;;;;;;;;;;;;;;;4948757;28;21128;-65
2021/12/17 15:41:23;;;;;;;;;;;;;;;;;;4947040;28;19922;-65
2021/12/17 15:43:49;;;;;;;;;;;;;;;;;;4951004;28;19993;-65
2021/12/17 15:46:15;;;;;;;;;;;;;;;;;;4950222;28;19980;-64
2021/12/17 15:48:41;;;;;;;;;;;;;;;;;;4951386;28;20367;-65
2021/12/17 15:51:07;;;;;;;;;;;;;;;;;;4949698;28;19954;-65
2021/12/17 15:53:33;;;;;;;;;;;;;;;;;;4949018;28;19961;-65
2021/12/17 15:55:59;;;;;;;;;;;;;;;;;;4968194;28;19923;-65
2021/12/17 16:01:01;;;;;;;;;;;;;;;;;;4708805;26;19927;-66
2021/12/17 16:03:32;;;;;;;;;;;;;;;;;;4956556;28;20058;-66
2021/12/17 16:05:58;;;;;;;;;;;;;;;;;;4946096;28;19996;-66
2021/12/17 16:08:24;;;;;;;;;;;;;;;;;;4966681;28;19928;-66
2021/12/17 16:21:49;;;;;;;;;;;;;;;;;;4953588;28;19964;-66
2021/12/17 16:24:16;;;;;;;;;;;;;;;;;;4952734;28;19968;-66
2021/12/17 16:26:42;;;;;;;;;;;;;;;;;;4965072;28;20345;-66
2021/12/17 16:29:10;;;;;;;;;;;;;;;;;;4958675;28;20016;-66
2021/12/17 16:31:35;;;;;;;;;;;;;;;;;;4952572;28;20005;-66
2021/12/17 16:34:02;;;;;;;;;;;;;;;;;;4951639;28;20001;-66
2021/12/17 16:36:28;;;;;;;;;;;;;;;;;;4948640;28;20414;-66
2021/12/17 16:38:54;;;;;;;;;;;;;;;;;;4953704;28;19927;-66
2021/12/17 16:41:20;;;;;;;;;;;;;;;;;;4952429;28;20005;-66
2021/12/17 16:43:47;;;;;;;;;;;;;;;;;;4952534;28;19914;-66
2021/12/17 16:48:45;;;;;;;;;;;;;;;;;;4961034;28;19918;-67
2021/12/17 16:51:10;;;;;;;;;;;;;;;;;;4963720;28;19946;-66
2021/12/17 16:53:36;;;;;;;;;;;;;;;;;;4951425;28;20008;-66
2021/12/17 16:56:02;;;;;;;;;;;;;;;;;;4948517;28;19946;-66
2021/12/17 16:58:29;;;;;;;;;;;;;;;;;;4968529;28;19914;-66
2021/12/17 17:00:55;;;;;;;;;;;;;;;;;;4967868;28;19995;-66
2021/12/17 17:03:21;;;;;;;;;;;;;;;;;;4954391;28;20407;-66
2021/12/17 17:05:47;;;;;;;;;;;;;;;;;;4953055;28;19984;-66
2021/12/17 17:08:13;;;;;;;;;;;;;;;;;;4964021;28;20464;-66
2021/12/17 17:10:39;;;;;;;;;;;;;;;;;;4961833;28;19953;-66
2021/12/17 17:13:05;;;;;;;;;;;;;;;;;;4952475;28;19915;-66
2021/12/17 17:15:34;;;;;;;;;;;;;;;;;;4950217;28;20001;-66
2021/12/17 17:18:00;;;;;;;;;;;;;;;;;;4952195;28;19921;-66
2021/12/17 17:20:26;;;;;;;;;;;;;;;;;;4959820;28;19970;-67
2021/12/17 17:22:52;;;;;;;;;;;;;;;;;;4967061;28;19954;-66
2021/12/17 17:25:18;;;;;;;;;;;;;;;;;;4947303;28;19921;-66
2021/12/17 17:27:43;;;;;;;;;;;;;;;;;;4955270;28;20421;-66
2021/12/17 17:30:09;;;;;;;;;;;;;;;;;;4948560;28;19965;-65
2021/12/17 17:32:36;;;;;;;;;;;;;;;;;;4951733;28;19973;-66
2021/12/17 17:35:02;;;;;;;;;;;;;;;;;;4940797;28;20045;-66
2021/12/17 17:37:31;;;;;;;;;;;;;;;;;;4950625;28;20035;-66
2021/12/17 17:39:57;;;;;;;;;;;;;;;;;;4942479;28;20299;-66
2021/12/17 17:42:23;;;;;;;;;;;;;;;;;;4950325;28;19915;-66
2021/12/17 17:44:49;;;;;;;;;;;;;;;;;;4963824;28;19923;-67
2021/12/17 17:47:15;;;;;;;;;;;;;;;;;;4947096;28;20034;-67
2021/12/17 17:49:41;;;;;;;;;;;;;;;;;;4952429;28;19961;-67
2021/12/17 17:52:07;;;;;;;;;;;;;;;;;;4957428;28;19968;-67
2021/12/17 17:54:33;;;;;;;;;;;;;;;;;;4963098;28;20394;-67
2021/12/17 17:56:59;;;;;;;;;;;;;;;;;;4948408;28;19914;-66
2021/12/17 17:59:24;;;;;;;;;;;;;;;;;;4953397;28;20001;-66
2021/12/17 18:01:50;;;;;;;;;;;;;;;;;;4950957;28;20029;-66
2021/12/17 18:04:16;;;;;;;;;;;;;;;;;;4955196;28;19952;-65
2021/12/17 18:06:42;;;;;;;;;;;;;;;;;;4950305;28;19953;-66
2021/12/17 18:09:08;;;;;;;;;;;;;;;;;;4974724;28;19924;-66
2021/12/17 18:11:34;;;;;;;;;;;;;;;;;;4946996;28;19923;-66
2021/12/17 18:14:00;;;;;;;;;;;;;;;;;;4946522;28;20089;-66
2021/12/17 18:16:26;;;;;;;;;;;;;;;;;;4948469;28;19950;-66
2021/12/17 18:18:52;;;;;;;;;;;;;;;;;;4972447;28;19954;-66
2021/12/17 18:21:18;;;;;;;;;;;;;;;;;;4969709;28;19946;-66
2021/12/17 18:23:44;;;;;;;;;;;;;;;;;;4961383;28;19956;-66
2021/12/17 18:26:10;;;;;;;;;;;;;;;;;;4952234;28;19977;-66
2021/12/17 18:28:36;;;;;;;;;;;;;;;;;;4964426;28;19953;-66
2021/12/17 18:31:02;;;;;;;;;;;;;;;;;;4946077;28;19918;-66
2021/12/17 18:33:29;;;;;;;;;;;;;;;;;;4959377;28;20352;-67
2021/12/17 18:35:55;;;;;;;;;;;;;;;;;;4952705;28;20299;-66
2021/12/17 18:38:21;;;;;;;;;;;;;;;;;;4961515;28;19969;-67
2021/12/17 18:40:56;;;;;;;;;;;;;;;;;;4953725;28;19970;-66
2021/12/17 18:46:07;;;;;;;;;;;;;;;;;;4944237;28;19937;-66
2021/12/17 18:48:33;;;;;;;;;;;;;;;;;;4960706;28;20406;-66
2021/12/17 18:50:59;;;;;;;;;;;;;;;;;;4950696;28;19957;-67
2021/12/17 18:53:27;;;;;;;;;;;;;;;;;;4956439;28;19926;-67
2021/12/17 18:55:53;;;;;;;;;;;;;;;;;;4954619;28;19918;-66
2021/12/17 18:58:19;;;;;;;;;;;;;;;;;;4954892;28;19961;-66
2021/12/17 19:00:44;;;;;;;;;;;;;;;;;;4952177;28;19958;-67
2021/12/17 19:03:10;;;;;;;;;;;;;;;;;;4951871;28;20040;-65
2021/12/17 19:05:36;;;;;;;;;;;;;;;;;;4951657;28;19950;-67
2021/12/17 19:08:02;;;;;;;;;;;;;;;;;;4961001;28;20010;-66
2021/12/17 19:10:28;;;;;;;;;;;;;;;;;;4956034;28;20004;-66
2021/12/17 19:12:54;;;;;;;;;;;;;;;;;;4954447;28;20014;-66
2021/12/17 19:15:22;;;;;;;;;;;;;;;;;;4966937;28;20009;-66
2021/12/17 19:17:48;;;;;;;;;;;;;;;;;;4953214;28;19926;-66
2021/12/17 19:20:17;;;;;;;;;;;;;;;;;;4962269;28;19954;-66
2021/12/17 19:22:48;;;;;;;;;;;;;;;;;;4953111;28;19945;-66
2021/12/17 19:25:14;;;;;;;;;;;;;;;;;;4953248;28;19925;-66
2021/12/17 19:27:40;;;;;;;;;;;;;;;;;;4954500;28;19923;-67
2021/12/17 19:30:06;;;;;;;;;;;;;;;;;;4948638;28;19963;-66
2021/12/17 19:32:32;;;;;;;;;;;;;;;;;;4954052;28;20342;-66
2021/12/17 19:34:57;;;;;;;;;;;;;;;;;;4959919;28;19966;-67
2021/12/17 19:37:23;;;;;;;;;;;;;;;;;;4957407;28;19952;-66
2021/12/17 19:39:51;;;;;;;;;;;;;;;;;;4967911;28;19969;-67
2021/12/17 19:42:17;;;;;;;;;;;;;;;;;;4955936;28;20283;-66
2021/12/17 19:44:43;;;;;;;;;;;;;;;;;;4951481;28;20005;-66
2021/12/17 19:52:04;;;;;;;;;;;;;;;;;;4958752;28;20298;-67
2021/12/17 19:54:31;;;;;;;;;;;;;;;;;;4951495;28;20442;-66
2021/12/17 19:56:57;;;;;;;;;;;;;;;;;;4950117;28;20081;-66
2021/12/17 19:59:23;;;;;;;;;;;;;;;;;;4953016;28;19918;-66
2021/12/17 20:01:50;;;;;;;;;;;;;;;;;;4955011;28;19958;-67
2021/12/17 20:04:16;;;;;;;;;;;;;;;;;;4954208;28;20389;-66
2021/12/17 20:06:44;;;;;;;;;;;;;;;;;;4942603;28;19950;-66
2021/12/17 20:09:09;;;;;;;;;;;;;;;;;;4952558;28;20276;-66
2021/12/17 20:11:36;;;;;;;;;;;;;;;;;;4958662;28;19925;-66
2021/12/17 20:14:02;;;;;;;;;;;;;;;;;;4950736;28;20350;-66
2021/12/17 20:16:28;;;;;;;;;;;;;;;;;;4943670;28;19954;-67
2021/12/17 20:18:55;;;;;;;;;;;;;;;;;;4947748;28;19957;-67
2021/12/17 20:21:21;;;;;;;;;;;;;;;;;;4964670;28;19923;-66
2021/12/17 20:23:47;;;;;;;;;;;;;;;;;;4940605;28;19922;-67
2021/12/17 20:26:13;;;;;;;;;;;;;;;;;;4948103;28;20008;-66
2021/12/17 20:28:41;;;;;;;;;;;;;;;;;;4938179;28;20601;-66
2021/12/17 20:31:10;;;;;;;;;;;;;;;;;;4956527;28;19918;-66